createdAt,value
2022-12-23T00:00:07.151Z,100627.28
2022-12-23T00:03:14.627Z,100622.22
2022-12-23T00:06:20.425Z,100617.84
2022-12-23T00:09:23.100Z,100615.72
2022-12-23T00:12:44.093Z,100607.16
2022-12-23T00:15:46.707Z,100590.84
2022-12-23T00:18:50.819Z,100597.56
2022-12-23T00:21:53.450Z,100591.41
2022-12-23T00:24:56.080Z,100577.06
2022-12-23T00:28:01.548Z,100582.91
2022-12-23T00:31:06.950Z,100583.47
2022-12-23T00:34:11.972Z,100589.00
2022-12-23T00:37:14.642Z,100587.44
2022-12-23T00:40:35.832Z,100584.81
2022-12-23T00:43:38.507Z,100584.25
2022-12-23T00:46:41.490Z,100581.13
2022-12-23T00:49:45.665Z,100583.25
2022-12-23T00:52:48.352Z,100581.47
2022-12-23T00:55:51.360Z,100569.56
2022-12-23T00:58:53.992Z,100572.84
2022-12-23T01:02:15.782Z,100576.28
2022-12-23T01:05:38.399Z,100573.41
2022-12-23T01:08:41.537Z,100567.09
2022-12-23T01:11:44.150Z,100565.19
2022-12-23T01:14:46.853Z,100560.38
2022-12-23T01:17:49.499Z,100555.31
2022-12-23T01:20:53.754Z,100561.38
2022-12-23T01:23:56.363Z,100549.03
2022-12-23T01:26:59.167Z,100548.13
2022-12-23T01:30:01.962Z,100555.66
2022-12-23T01:33:06.023Z,100556.31
2022-12-23T01:36:10.951Z,100570.44
2022-12-23T01:39:13.673Z,100580.34
2022-12-23T01:42:37.306Z,100572.03
2022-12-23T01:45:39.964Z,100571.28
2022-12-23T01:48:45.506Z,100557.69
2022-12-23T01:51:49.693Z,100554.75
2022-12-23T01:54:53.013Z,100555.66
2022-12-23T01:58:00.682Z,100535.78
2022-12-23T02:01:22.956Z,100557.09
2022-12-23T02:04:26.172Z,100540.16
2022-12-23T02:07:50.265Z,100546.47
2022-12-23T02:11:15.860Z,100559.81
2022-12-23T02:14:49.331Z,100565.97
2022-12-23T02:18:06.304Z,100544.22
2022-12-23T02:21:27.289Z,100546.56
2022-12-23T02:25:05.793Z,100541.53
2022-12-23T02:28:40.880Z,100536.31
2022-12-23T02:31:55.244Z,100541.28
2022-12-23T02:35:04.942Z,100542.50
2022-12-23T02:38:12.576Z,100540.03
2022-12-23T02:41:23.382Z,100546.09
2022-12-23T02:44:33.209Z,100541.13
2022-12-23T02:47:42.238Z,100536.53
2022-12-23T02:50:48.172Z,100536.75
2022-12-23T02:53:54.428Z,100538.47
2022-12-23T02:57:00.725Z,100524.19
2022-12-23T03:00:05.525Z,100521.59
2022-12-23T03:03:12.101Z,100519.03
2022-12-23T03:06:21.737Z,100514.88
2022-12-23T03:09:31.283Z,100519.22
2022-12-23T03:12:47.220Z,100517.56
2022-12-23T03:15:59.421Z,100520.94
2022-12-23T03:19:14.345Z,100512.91
2022-12-23T03:22:25.838Z,100505.38
2022-12-23T03:25:33.931Z,100518.88
2022-12-23T03:28:44.152Z,100510.47
2022-12-23T03:31:48.772Z,100515.72
2022-12-23T03:34:56.925Z,100508.69
2022-12-23T03:38:02.351Z,100506.53
2022-12-23T03:41:09.929Z,100503.22
2022-12-23T03:44:19.566Z,100510.19
2022-12-23T03:47:28.042Z,100510.28
2022-12-23T03:50:36.454Z,100515.81
2022-12-23T03:53:44.830Z,100517.38
2022-12-23T03:56:53.158Z,100517.97
2022-12-23T03:59:56.337Z,100519.41
2022-12-23T04:03:10.285Z,100521.41
2022-12-23T04:06:17.593Z,100519.31
2022-12-23T04:09:22.563Z,100514.88
2022-12-23T04:12:31.106Z,100513.41
2022-12-23T04:15:38.706Z,100513.69
2022-12-23T04:18:41.434Z,100525.38
2022-12-23T04:21:45.528Z,100513.03
2022-12-23T04:24:48.141Z,100514.41
2022-12-23T04:27:50.748Z,100512.25
2022-12-23T04:30:53.557Z,100512.41
2022-12-23T04:33:56.696Z,100510.44
2022-12-23T04:37:00.858Z,100515.47
2022-12-23T04:40:04.213Z,100510.88
2022-12-23T04:43:06.938Z,100512.19
2022-12-23T04:46:09.515Z,100505.81
2022-12-23T04:49:12.150Z,100501.47
2022-12-23T04:52:16.436Z,100493.00
2022-12-23T04:55:19.084Z,100502.34
2022-12-23T04:58:22.338Z,100494.78
2022-12-23T05:01:24.967Z,100508.13
2022-12-23T05:04:28.995Z,100507.72
2022-12-23T05:07:33.044Z,100516.19
2022-12-23T05:10:37.546Z,100522.34
2022-12-23T05:13:40.242Z,100513.50
2022-12-23T05:16:42.831Z,100508.66
2022-12-23T05:19:45.750Z,100514.59
2022-12-23T05:22:50.328Z,100517.28
2022-12-23T05:25:54.216Z,100527.31
2022-12-23T05:28:56.878Z,100521.81
2022-12-23T05:31:59.605Z,100509.06
2022-12-23T05:35:02.431Z,100516.84
2022-12-23T05:38:06.639Z,100519.53
2022-12-23T05:41:09.316Z,100504.94
2022-12-23T05:44:12.007Z,100504.25
2022-12-23T05:47:14.731Z,100508.53
2022-12-23T05:50:17.721Z,100517.75
2022-12-23T05:53:21.994Z,100522.50
2022-12-23T05:56:24.689Z,100517.97
2022-12-23T05:59:30.969Z,100520.22
2022-12-23T06:02:34.516Z,100529.22
2022-12-23T06:05:38.999Z,100534.19
2022-12-23T06:08:43.140Z,100532.72
2022-12-23T06:11:46.074Z,100539.22
2022-12-23T06:14:48.801Z,100538.22
2022-12-23T06:17:51.681Z,100539.72
2022-12-23T06:20:54.568Z,100553.41
2022-12-23T06:23:58.906Z,100555.19
2022-12-23T06:27:01.682Z,100563.63
2022-12-23T06:30:05.165Z,100577.75
2022-12-23T06:33:08.120Z,100571.47
2022-12-23T06:36:10.915Z,100573.16
2022-12-23T06:39:15.040Z,100570.56
2022-12-23T06:42:17.745Z,100579.34
2022-12-23T06:45:20.452Z,100585.97
2022-12-23T06:48:23.066Z,100586.41
2022-12-23T06:51:25.758Z,100587.50
2022-12-23T06:54:29.844Z,100577.09
2022-12-23T06:57:32.613Z,100580.91
2022-12-23T07:00:39.749Z,100581.25
2022-12-23T07:03:42.523Z,100569.78
2022-12-23T07:06:45.322Z,100585.53
2022-12-23T07:09:49.458Z,100591.56
2022-12-23T07:12:52.118Z,100593.03
2022-12-23T07:15:55.142Z,100596.97
2022-12-23T07:18:57.930Z,100589.44
2022-12-23T07:22:03.942Z,100586.72
2022-12-23T07:25:09.200Z,100591.59
2022-12-23T07:28:11.949Z,100583.59
2022-12-23T07:31:15.023Z,100592.13
2022-12-23T07:34:18.875Z,100594.59
2022-12-23T07:37:21.482Z,100595.28
2022-12-23T07:40:27.330Z,100595.63
2022-12-23T07:43:30.041Z,100588.22
2022-12-23T07:46:32.964Z,100584.72
2022-12-23T07:49:35.800Z,100581.22
2022-12-23T07:52:38.953Z,100575.66
2022-12-23T07:55:42.923Z,100577.06
2022-12-23T07:58:48.508Z,100574.72
2022-12-23T08:01:51.169Z,100556.31
2022-12-23T08:04:53.936Z,100563.59
2022-12-23T08:07:56.565Z,100560.00
2022-12-23T08:11:03.823Z,100564.41
2022-12-23T08:14:07.071Z,100566.44
2022-12-23T08:17:09.922Z,100558.78
2022-12-23T08:20:13.062Z,100569.00
2022-12-23T08:23:21.382Z,100570.13
2022-12-23T08:26:28.433Z,100577.75
2022-12-23T08:29:36.020Z,100569.91
2022-12-23T08:32:39.342Z,100573.38
2022-12-23T08:35:42.076Z,100578.75
2022-12-23T08:38:45.626Z,100589.66
2022-12-23T08:41:49.727Z,100598.84
2022-12-23T08:44:56.719Z,100608.53
2022-12-23T08:47:59.426Z,100605.84
2022-12-23T08:51:05.687Z,100595.28
2022-12-23T08:54:08.478Z,100602.56
2022-12-23T08:57:12.617Z,100597.50
2022-12-23T09:00:17.299Z,100596.50
2022-12-23T09:03:20.221Z,100594.50
2022-12-23T09:06:29.697Z,100592.47
2022-12-23T09:09:33.523Z,100588.66
2022-12-23T09:12:37.639Z,100577.19
2022-12-23T09:15:42.305Z,100573.81
2022-12-23T09:18:45.177Z,100569.13
2022-12-23T09:21:48.112Z,100554.25
2022-12-23T09:24:51.199Z,100544.44
2022-12-23T09:27:55.469Z,100531.56
2022-12-23T09:30:58.311Z,100529.31
2022-12-23T09:34:01.371Z,100530.78
2022-12-23T09:37:04.602Z,100535.06
2022-12-23T09:40:11.048Z,100531.88
2022-12-23T09:43:25.063Z,100538.88
2022-12-23T09:46:32.849Z,100539.53
2022-12-23T09:49:44.947Z,100543.81
2022-12-23T09:52:57.851Z,100536.66
2022-12-23T09:56:06.637Z,100530.13
2022-12-23T09:59:22.429Z,100514.66
2022-12-23T10:02:37.584Z,100519.50
2022-12-23T10:05:56.292Z,100521.66
2022-12-23T10:09:01.565Z,100527.44
2022-12-23T10:12:14.342Z,100536.56
2022-12-23T10:15:26.093Z,100542.22
2022-12-23T10:18:44.741Z,100531.31
2022-12-23T10:21:50.650Z,100530.28
2022-12-23T10:24:55.569Z,100523.41
2022-12-23T10:27:58.393Z,100520.78
2022-12-23T10:31:30.904Z,100522.03
2022-12-23T10:34:40.563Z,100511.16
2022-12-23T10:37:55.348Z,100503.63
2022-12-23T10:41:09.469Z,100501.09
2022-12-23T10:44:33.422Z,100479.84
2022-12-23T10:47:48.304Z,100481.22
2022-12-23T10:50:59.545Z,100473.44
2022-12-23T10:54:06.825Z,100458.72
2022-12-23T10:57:10.462Z,100461.56
2022-12-23T11:00:21.817Z,100461.91
2022-12-23T11:03:28.885Z,100464.69
2022-12-23T11:06:37.479Z,100471.31
2022-12-23T11:09:44.156Z,100476.41
2022-12-23T11:12:49.999Z,100475.19
2022-12-23T11:15:53.061Z,100470.97
2022-12-23T11:19:00.736Z,100470.16
2022-12-23T11:22:04.146Z,100462.97
2022-12-23T11:25:27.145Z,100450.09
2022-12-23T11:28:31.514Z,100432.00
2022-12-23T11:31:36.523Z,100429.94
2022-12-23T11:34:45.846Z,100427.25
2022-12-23T11:37:48.585Z,100427.25
2022-12-23T11:40:51.469Z,100414.22
2022-12-23T11:44:00.100Z,100421.91
2022-12-23T11:47:23.120Z,100418.28
2022-12-23T11:50:31.624Z,100410.94
2022-12-23T11:53:36.715Z,100403.94
2022-12-23T11:56:41.024Z,100399.78
2022-12-23T11:59:51.273Z,100395.97
2022-12-23T12:02:57.112Z,100399.44
2022-12-23T12:06:03.706Z,100398.75
2022-12-23T12:09:06.928Z,100406.47
2022-12-23T12:12:17.511Z,100391.06
2022-12-23T12:15:29.189Z,100398.63
2022-12-23T12:18:34.038Z,100397.31
2022-12-23T12:21:39.166Z,100401.88
2022-12-23T12:24:51.008Z,100397.59
2022-12-23T12:27:58.103Z,100395.28
2022-12-23T12:31:11.719Z,100399.66
2022-12-23T12:34:25.642Z,100397.06
2022-12-23T12:37:39.716Z,100392.00
2022-12-23T12:40:51.091Z,100386.78
2022-12-23T12:44:17.568Z,100393.28
2022-12-23T12:47:52.686Z,100404.22
2022-12-23T12:51:01.259Z,100404.06
2022-12-23T12:54:15.911Z,100404.72
2022-12-23T12:57:21.354Z,100400.44
2022-12-23T13:00:25.148Z,100408.44
2022-12-23T13:03:51.591Z,100400.81
2022-12-23T13:07:04.903Z,100400.81
2022-12-23T13:10:14.819Z,100397.13
2022-12-23T13:13:32.403Z,100388.84
2022-12-23T13:16:45.551Z,100389.06
2022-12-23T13:19:56.887Z,100386.78
2022-12-23T13:23:41.117Z,100392.38
2022-12-23T13:26:37.802Z,100395.09
2022-12-23T13:29:57.548Z,100399.53
2022-12-23T13:33:14.958Z,100382.66
2022-12-23T13:36:32.708Z,100390.69
2022-12-23T13:39:49.400Z,100388.06
2022-12-23T13:42:59.749Z,100387.53
2022-12-23T13:46:08.352Z,100385.78
2022-12-23T13:49:19.987Z,100397.03
2022-12-23T13:52:47.621Z,100399.47
2022-12-23T13:56:06.046Z,100405.91
2022-12-23T13:59:11.941Z,100400.19
2022-12-23T14:02:40.872Z,100401.28
2022-12-23T14:05:45.536Z,100411.94
2022-12-23T14:08:48.777Z,100419.94
2022-12-23T14:11:52.856Z,100420.78
2022-12-23T14:15:28.090Z,100417.28
2022-12-23T14:18:45.111Z,100416.94
2022-12-23T14:21:57.933Z,100420.13
2022-12-23T14:25:40.776Z,100418.97
2022-12-23T14:28:56.473Z,100422.19
2022-12-23T14:32:01.092Z,100419.97
2022-12-23T14:35:17.320Z,100423.31
2022-12-23T14:38:31.177Z,100425.78
2022-12-23T14:41:38.924Z,100426.84
2022-12-23T14:44:50.259Z,100434.41
2022-12-23T14:47:54.384Z,100439.78
2022-12-23T14:51:02.731Z,100432.94
2022-12-23T14:54:15.958Z,100434.59
2022-12-23T14:57:25.271Z,100435.28
2022-12-23T15:00:32.199Z,100434.22
2022-12-23T15:03:43.629Z,100437.00
2022-12-23T15:06:48.484Z,100440.00
2022-12-23T15:10:00.275Z,100440.00
2022-12-23T15:13:06.037Z,100436.84
2022-12-23T15:16:16.879Z,100442.06
2022-12-23T15:19:24.351Z,100437.25
2022-12-23T15:22:32.628Z,100441.25
2022-12-23T15:25:39.996Z,100429.56
2022-12-23T15:28:42.913Z,100432.28
2022-12-23T15:31:48.682Z,100431.59
2022-12-23T15:34:58.914Z,100428.81
2022-12-23T15:38:02.891Z,100430.22
2022-12-23T15:41:15.119Z,100421.38
2022-12-23T15:44:20.838Z,100416.06
2022-12-23T15:47:25.795Z,100420.06
2022-12-23T15:50:40.289Z,100427.59
2022-12-23T15:53:46.832Z,100423.25
2022-12-23T15:56:52.319Z,100413.72
2022-12-23T15:59:56.109Z,100418.91
2022-12-23T16:03:01.226Z,100427.44
2022-12-23T16:06:17.810Z,100438.31
2022-12-23T16:09:31.787Z,100430.56
2022-12-23T16:12:34.939Z,100435.41
2022-12-23T16:15:37.647Z,100431.94
2022-12-23T16:18:47.165Z,100426.31
2022-12-23T16:21:51.588Z,100437.13
2022-12-23T16:25:01.590Z,100439.78
2022-12-23T16:28:07.661Z,100441.09
2022-12-23T16:31:11.346Z,100425.69
2022-12-23T16:34:14.091Z,100433.16
2022-12-23T16:37:18.254Z,100424.31
2022-12-23T16:40:24.596Z,100414.16
2022-12-23T16:43:27.634Z,100407.91
2022-12-23T16:46:36.365Z,100407.59
2022-12-23T16:49:39.141Z,100407.53
2022-12-23T16:52:43.349Z,100399.09
2022-12-23T16:55:53.879Z,100395.00
2022-12-23T16:58:57.911Z,100393.47
2022-12-23T17:02:03.742Z,100398.78
2022-12-23T17:05:07.855Z,100392.97
2022-12-23T17:08:12.084Z,100406.75
2022-12-23T17:11:17.467Z,100395.63
2022-12-23T17:14:22.350Z,100394.00
2022-12-23T17:17:26.047Z,100390.06
2022-12-23T17:20:28.969Z,100401.88
2022-12-23T17:23:33.089Z,100399.97
2022-12-23T17:26:35.832Z,100410.88
2022-12-23T17:29:38.472Z,100404.88
2022-12-23T17:32:41.586Z,100406.09
2022-12-23T17:35:44.365Z,100397.13
2022-12-23T17:38:48.457Z,100409.91
2022-12-23T17:41:51.385Z,100402.75
2022-12-23T17:44:54.085Z,100409.22
2022-12-23T17:47:57.190Z,100404.69
2022-12-23T17:51:00.096Z,100403.72
2022-12-23T17:54:06.452Z,100399.31
2022-12-23T17:57:17.799Z,100398.41
2022-12-23T18:00:29.864Z,100395.03
2022-12-23T18:03:36.957Z,100392.34
2022-12-23T18:06:39.563Z,100387.72
2022-12-23T18:09:44.014Z,100391.03
2022-12-23T18:12:49.989Z,100387.09
2022-12-23T18:15:52.678Z,100386.50
2022-12-23T18:18:55.620Z,100388.59
2022-12-23T18:21:58.820Z,100391.41
2022-12-23T18:25:03.378Z,100375.88
2022-12-23T18:28:06.324Z,100383.84
2022-12-23T18:31:15.206Z,100378.88
2022-12-23T18:34:22.279Z,100380.09
2022-12-23T18:37:25.022Z,100386.69
2022-12-23T18:40:33.158Z,100389.91
2022-12-23T18:43:37.183Z,100396.88
2022-12-23T18:46:39.808Z,100407.25
2022-12-23T18:49:43.197Z,100406.81
2022-12-23T18:52:46.675Z,100414.09
2022-12-23T18:55:51.174Z,100420.03
2022-12-23T18:58:53.821Z,100419.31
2022-12-23T19:01:56.968Z,100402.53
2022-12-23T19:04:59.881Z,100406.28
2022-12-23T19:08:02.699Z,100409.69
2022-12-23T19:11:11.463Z,100411.59
2022-12-23T19:14:14.755Z,100413.25
2022-12-23T19:17:17.568Z,100399.56
2022-12-23T19:20:25.504Z,100401.69
2022-12-23T19:23:28.787Z,100408.78
2022-12-23T19:26:32.777Z,100414.09
2022-12-23T19:29:35.567Z,100417.59
2022-12-23T19:32:38.159Z,100416.63
2022-12-23T19:35:42.048Z,100416.63
2022-12-23T19:38:45.061Z,100417.16
2022-12-23T19:41:49.264Z,100418.47
2022-12-23T19:44:52.023Z,100417.88
2022-12-23T19:47:54.690Z,100413.06
2022-12-23T19:50:59.029Z,100409.75
2022-12-23T19:54:01.797Z,100413.69
2022-12-23T19:57:05.783Z,100413.63
2022-12-23T20:00:09.991Z,100427.88
2022-12-23T20:03:15.988Z,100440.63
2022-12-23T20:06:20.946Z,100437.47
2022-12-23T20:09:23.835Z,100433.81
2022-12-23T20:12:28.062Z,100427.78
2022-12-23T20:15:30.728Z,100423.41
2022-12-23T20:18:34.209Z,100422.78
2022-12-23T20:21:40.142Z,100427.03
2022-12-23T20:24:44.216Z,100420.88
2022-12-23T20:27:48.241Z,100423.38
2022-12-23T20:30:58.933Z,100421.09
2022-12-23T20:34:02.457Z,100424.34
2022-12-23T20:37:05.152Z,100431.41
2022-12-23T20:40:10.401Z,100430.38
2022-12-23T20:43:15.461Z,100437.38
2022-12-23T20:46:19.125Z,100435.44
2022-12-23T20:49:21.858Z,100437.81
2022-12-23T20:52:25.589Z,100446.63
2022-12-23T20:55:28.202Z,100454.25
2022-12-23T20:58:50.517Z,100440.66
2022-12-23T21:01:53.324Z,100452.69
2022-12-23T21:04:56.022Z,100447.06
2022-12-23T21:07:58.704Z,100448.63
2022-12-23T21:11:03.459Z,100441.06
2022-12-23T21:14:08.072Z,100444.22
2022-12-23T21:17:10.811Z,100433.47
2022-12-23T21:20:13.552Z,100433.56
2022-12-23T21:23:16.560Z,100430.00
2022-12-23T21:26:21.639Z,100428.72
2022-12-23T21:29:26.210Z,100436.09
2022-12-23T21:32:28.894Z,100427.56
2022-12-23T21:35:31.559Z,100411.94
2022-12-23T21:38:36.038Z,100411.84
2022-12-23T21:41:41.239Z,100403.25
2022-12-23T21:44:45.295Z,100390.59
2022-12-23T21:47:47.976Z,100395.56
2022-12-23T21:50:54.967Z,100384.00
2022-12-23T21:53:59.077Z,100377.03
2022-12-23T21:57:01.747Z,100378.88
2022-12-23T22:00:07.180Z,100370.41
2022-12-23T22:03:09.828Z,100360.91
2022-12-23T22:06:15.249Z,100372.06
2022-12-23T22:09:19.686Z,100376.66
2022-12-23T22:12:22.393Z,100385.38
2022-12-23T22:15:26.351Z,100381.75
2022-12-23T22:18:29.010Z,100369.88
2022-12-23T22:21:33.963Z,100355.44
2022-12-23T22:24:36.812Z,100355.13
2022-12-23T22:27:39.519Z,100353.69
2022-12-23T22:30:43.602Z,100360.41
2022-12-23T22:33:46.976Z,100371.53
2022-12-23T22:36:50.245Z,100379.34
2022-12-23T22:39:53.104Z,100377.56
2022-12-23T22:42:57.331Z,100368.41
2022-12-23T22:46:02.452Z,100353.16
2022-12-23T22:49:05.739Z,100349.66
2022-12-23T22:52:08.461Z,100349.41
2022-12-23T22:55:11.168Z,100343.03
2022-12-23T22:58:13.876Z,100344.66
2022-12-23T23:01:22.467Z,100342.25
2022-12-23T23:04:25.388Z,100342.31
2022-12-23T23:07:27.978Z,100324.13
2022-12-23T23:10:33.435Z,100333.28
2022-12-23T23:13:36.338Z,100315.38
2022-12-23T23:16:40.731Z,100311.28
2022-12-23T23:19:43.450Z,100305.53
2022-12-23T23:22:46.110Z,100310.59
2022-12-23T23:25:49.767Z,100305.81
2022-12-23T23:28:52.492Z,100308.66
2022-12-23T23:31:58.700Z,100312.34
2022-12-23T23:35:08.581Z,100309.66
2022-12-23T23:38:13.100Z,100311.84
2022-12-23T23:41:20.651Z,100293.75
2022-12-23T23:44:25.784Z,100294.09
2022-12-23T23:47:34.444Z,100294.44
2022-12-23T23:50:37.151Z,100290.19
2022-12-23T23:53:40.468Z,100290.69
2022-12-23T23:56:43.234Z,100302.78
2022-12-23T23:59:45.880Z,100288.97
